createdAt,value
2017-11-15T00:00:17.008Z,5.50
2017-11-15T00:02:46.179Z,5.40
2017-11-15T00:05:15.473Z,5.40
2017-11-15T00:07:43.898Z,5.40
2017-11-15T00:10:12.383Z,5.40
2017-11-15T00:12:41.604Z,5.30
2017-11-15T00:15:10.049Z,5.20
2017-11-15T00:17:39.200Z,5.20
2017-11-15T00:20:08.235Z,5.20
2017-11-15T00:22:37.707Z,5.20
2017-11-15T00:25:06.126Z,5.20
2017-11-15T00:27:35.434Z,5.10
2017-11-15T00:30:04.687Z,5.10
2017-11-15T00:32:33.145Z,5.10
2017-11-15T00:35:01.693Z,5.10
2017-11-15T00:37:30.220Z,5.10
2017-11-15T00:39:58.679Z,5.10
2017-11-15T00:42:27.173Z,5.10
2017-11-15T00:44:55.612Z,5.20
2017-11-15T00:47:24.905Z,5.20
2017-11-15T00:49:53.542Z,5.20
2017-11-15T00:52:21.943Z,5.20
2017-11-15T00:54:50.385Z,5.20
2017-11-15T00:57:18.849Z,5.20
2017-11-15T00:59:47.280Z,5.30
2017-11-15T01:02:15.685Z,5.30
2017-11-15T01:04:44.267Z,5.30
2017-11-15T01:07:12.696Z,5.30
2017-11-15T01:09:41.109Z,5.30
2017-11-15T01:12:09.706Z,5.30
2017-11-15T01:14:38.226Z,5.30
2017-11-15T01:17:06.637Z,5.30
2017-11-15T01:19:35.681Z,5.30
2017-11-15T01:22:05.222Z,5.30
2017-11-15T01:24:33.673Z,5.20
2017-11-15T01:27:02.118Z,5.30
2017-11-15T01:29:30.533Z,5.30
2017-11-15T01:31:58.977Z,5.30
2017-11-15T01:34:27.451Z,5.20
2017-11-15T01:36:55.926Z,5.20
2017-11-15T01:39:24.368Z,5.20
2017-11-15T01:41:53.852Z,5.10
2017-11-15T01:44:23.103Z,5.10
2017-11-15T01:46:51.612Z,5.10
2017-11-15T01:49:20.877Z,5.00
2017-11-15T01:51:49.289Z,5.00
2017-11-15T01:54:17.736Z,4.90
2017-11-15T01:56:46.279Z,4.90
2017-11-15T01:59:14.835Z,4.90
2017-11-15T02:01:43.393Z,4.90
2017-11-15T02:04:11.872Z,4.80
2017-11-15T02:06:41.041Z,4.80
2017-11-15T02:09:09.499Z,4.80
2017-11-15T02:11:39.093Z,4.80
2017-11-15T02:14:07.576Z,4.70
2017-11-15T02:16:36.135Z,4.80
2017-11-15T02:19:04.832Z,4.70
2017-11-15T02:21:33.350Z,4.70
2017-11-15T02:24:02.035Z,4.80
2017-11-15T02:26:31.422Z,4.70
2017-11-15T02:29:00.672Z,4.80
2017-11-15T02:31:29.131Z,4.70
2017-11-15T02:33:57.667Z,4.80
2017-11-15T02:36:26.193Z,4.70
2017-11-15T02:38:54.694Z,4.80
2017-11-15T02:41:23.432Z,4.70
2017-11-15T02:43:51.926Z,4.80
2017-11-15T02:46:21.175Z,4.70
2017-11-15T02:48:49.776Z,4.70
2017-11-15T02:51:18.325Z,4.80
2017-11-15T02:53:46.804Z,4.80
2017-11-15T02:56:15.558Z,4.80
2017-11-15T02:58:44.009Z,4.80
2017-11-15T03:01:12.455Z,4.80
2017-11-15T03:03:41.015Z,4.80
2017-11-15T03:06:09.432Z,4.80
2017-11-15T03:08:37.878Z,4.80
2017-11-15T03:11:06.339Z,4.80
2017-11-15T03:13:35.533Z,4.80
2017-11-15T03:16:04.859Z,4.80
2017-11-15T03:18:33.421Z,4.80
2017-11-15T03:21:08.147Z,4.80
2017-11-15T03:23:37.425Z,4.80
2017-11-15T03:26:06.297Z,4.80
2017-11-15T03:28:34.713Z,4.80
2017-11-15T03:31:04.541Z,4.80
2017-11-15T03:33:32.977Z,4.80
2017-11-15T03:36:01.396Z,4.80
2017-11-15T03:38:29.917Z,4.80
2017-11-15T03:40:58.336Z,4.80
2017-11-15T03:43:26.783Z,4.80
2017-11-15T03:45:55.423Z,4.80
2017-11-15T03:48:24.601Z,4.80
2017-11-15T03:50:53.020Z,4.80
2017-11-15T03:53:21.803Z,4.70
2017-11-15T03:55:50.276Z,4.70
2017-11-15T03:58:18.700Z,4.70
2017-11-15T04:00:47.161Z,4.70
2017-11-15T04:03:15.888Z,4.70
2017-11-15T04:05:44.301Z,4.70
2017-11-15T04:08:13.692Z,4.70
2017-11-15T04:10:42.085Z,4.70
2017-11-15T04:13:10.511Z,4.70
2017-11-15T04:15:39.057Z,4.70
2017-11-15T04:18:07.477Z,4.70
2017-11-15T04:20:35.899Z,4.70
2017-11-15T04:23:04.491Z,4.70
2017-11-15T04:25:32.897Z,4.70
2017-11-15T04:28:01.780Z,4.70
2017-11-15T04:30:30.518Z,4.70
2017-11-15T04:32:58.922Z,4.70
2017-11-15T04:35:27.395Z,4.70
2017-11-15T04:37:56.967Z,4.70
2017-11-15T04:40:25.389Z,4.70
2017-11-15T04:42:53.859Z,4.70
2017-11-15T04:45:23.182Z,4.70
2017-11-15T04:47:51.613Z,4.70
2017-11-15T04:50:20.059Z,4.80
2017-11-15T04:52:48.882Z,4.70
2017-11-15T04:55:17.309Z,4.70
2017-11-15T04:57:45.732Z,4.70
2017-11-15T05:00:14.240Z,4.80
2017-11-15T05:02:43.425Z,4.80
2017-11-15T05:05:11.880Z,4.80
2017-11-15T05:07:40.627Z,4.80
2017-11-15T05:10:09.068Z,4.80
2017-11-15T05:12:37.628Z,4.80
2017-11-15T05:15:06.129Z,4.80
2017-11-15T05:17:34.621Z,4.80
2017-11-15T05:20:03.096Z,4.80
2017-11-15T05:22:31.624Z,4.80
2017-11-15T05:25:00.093Z,4.80
2017-11-15T05:27:29.296Z,4.70
2017-11-15T05:29:58.454Z,4.70
2017-11-15T05:32:26.883Z,4.70
2017-11-15T05:34:55.303Z,4.80
2017-11-15T05:37:23.743Z,4.70
2017-11-15T05:39:52.224Z,4.80
2017-11-15T05:42:20.850Z,4.80
2017-11-15T05:44:49.310Z,4.80
2017-11-15T05:47:17.719Z,4.70
2017-11-15T05:49:46.146Z,4.70
2017-11-15T05:52:14.999Z,4.70
2017-11-15T05:54:43.436Z,4.70
2017-11-15T05:57:11.879Z,4.70
2017-11-15T05:59:41.273Z,4.70
2017-11-15T06:02:10.465Z,4.70
2017-11-15T06:04:39.682Z,4.70
2017-11-15T06:07:08.575Z,4.60
2017-11-15T06:09:37.049Z,4.70
2017-11-15T06:12:05.560Z,4.70
2017-11-15T06:14:34.362Z,4.70
2017-11-15T06:17:03.714Z,4.60
2017-11-15T06:19:32.036Z,4.60
2017-11-15T06:22:00.586Z,4.60
2017-11-15T06:24:29.141Z,4.60
2017-11-15T06:26:57.657Z,4.60
2017-11-15T06:29:26.109Z,4.60
2017-11-15T06:31:55.169Z,4.60
2017-11-15T06:34:23.757Z,4.60
2017-11-15T06:36:52.192Z,4.70
2017-11-15T06:39:20.624Z,4.70
2017-11-15T06:41:49.045Z,4.70
2017-11-15T06:44:18.377Z,4.70
2017-11-15T06:46:46.820Z,4.60
2017-11-15T06:49:16.018Z,4.70
2017-11-15T06:51:45.632Z,4.70
2017-11-15T06:54:14.796Z,4.70
2017-11-15T06:56:43.329Z,4.70
2017-11-15T06:59:11.777Z,4.70
2017-11-15T07:01:41.012Z,4.70
2017-11-15T07:04:09.429Z,4.70
2017-11-15T07:06:38.041Z,4.80
2017-11-15T07:09:07.292Z,4.70
2017-11-15T07:11:36.486Z,4.80
2017-11-15T07:14:05.676Z,4.70
2017-11-15T07:16:34.138Z,4.80
2017-11-15T07:19:02.566Z,4.80
2017-11-15T07:21:31.132Z,4.90
2017-11-15T07:23:59.644Z,4.80
2017-11-15T07:26:28.100Z,5.00
2017-11-15T07:28:56.549Z,5.00
2017-11-15T07:31:24.953Z,4.90
2017-11-15T07:33:53.688Z,4.80
2017-11-15T07:36:23.018Z,4.90
2017-11-15T07:38:51.470Z,4.80
2017-11-15T07:41:20.720Z,4.90
2017-11-15T07:43:49.242Z,4.90
2017-11-15T07:46:18.535Z,4.80
2017-11-15T07:48:46.964Z,4.80
2017-11-15T07:51:15.927Z,4.90
2017-11-15T07:53:45.137Z,4.90
2017-11-15T07:56:13.543Z,4.90
2017-11-15T07:58:42.224Z,4.90
2017-11-15T08:01:10.643Z,4.90
2017-11-15T08:03:39.078Z,4.90
2017-11-15T08:06:07.724Z,4.90
2017-11-15T08:08:36.179Z,5.00
2017-11-15T08:11:05.789Z,4.90
2017-11-15T08:13:35.211Z,5.00
2017-11-15T08:16:03.672Z,5.00
2017-11-15T08:18:32.972Z,5.00
2017-11-15T08:21:01.572Z,4.90
2017-11-15T08:23:30.829Z,5.00
2017-11-15T08:25:59.274Z,4.90
2017-11-15T08:28:28.580Z,5.00
2017-11-15T08:30:57.037Z,5.00
2017-11-15T08:33:25.559Z,5.00
2017-11-15T08:35:54.355Z,5.00
2017-11-15T08:38:22.764Z,5.10
2017-11-15T08:40:51.248Z,5.10
2017-11-15T08:43:19.913Z,5.00
2017-11-15T08:45:48.429Z,5.00
2017-11-15T08:48:16.974Z,5.10
2017-11-15T08:50:45.867Z,5.10
2017-11-15T08:53:14.377Z,5.20
2017-11-15T08:55:42.822Z,5.20
2017-11-15T08:58:11.463Z,5.30
2017-11-15T09:00:40.745Z,5.30
2017-11-15T09:03:09.236Z,5.40
2017-11-15T09:05:37.739Z,5.40
2017-11-15T09:08:06.145Z,5.40
2017-11-15T09:10:34.533Z,5.40
2017-11-15T09:13:03.276Z,5.50
2017-11-15T09:15:32.463Z,5.50
2017-11-15T09:18:00.891Z,5.50
2017-11-15T09:20:30.374Z,5.50
2017-11-15T09:22:58.795Z,5.50
2017-11-15T09:25:27.336Z,5.60
2017-11-15T09:27:58.618Z,5.50
2017-11-15T09:30:27.046Z,5.50
2017-11-15T09:32:56.229Z,5.50
2017-11-15T09:35:25.480Z,5.50
2017-11-15T09:37:55.047Z,5.40
2017-11-15T09:40:25.072Z,5.50
2017-11-15T09:42:53.595Z,5.50
2017-11-15T09:45:22.796Z,5.50
2017-11-15T09:47:51.705Z,5.50
2017-11-15T09:50:22.274Z,5.50
2017-11-15T09:52:51.476Z,5.50
2017-11-15T09:55:20.019Z,5.50
2017-11-15T09:57:48.482Z,5.70
2017-11-15T10:00:17.912Z,5.70
2017-11-15T10:02:46.378Z,5.70
2017-11-15T10:05:16.025Z,5.70
2017-11-15T10:07:45.710Z,5.60
2017-11-15T10:10:14.123Z,5.70
2017-11-15T10:12:42.632Z,5.80
2017-11-15T10:15:11.244Z,5.90
2017-11-15T10:22:50.930Z,5.90
2017-11-15T10:25:19.489Z,6.00
2017-11-15T10:27:48.661Z,6.10
2017-11-15T10:30:18.000Z,6.20
2017-11-15T10:32:46.581Z,6.10
2017-11-15T10:35:16.842Z,6.00
2017-11-15T10:37:46.216Z,6.00
2017-11-15T10:40:15.171Z,6.20
2017-11-15T10:42:44.589Z,6.20
2017-11-15T10:45:12.999Z,6.10
2017-11-15T10:47:42.318Z,6.20
2017-11-15T10:50:10.783Z,6.20
2017-11-15T10:52:39.223Z,6.20
2017-11-15T10:55:07.886Z,6.20
2017-11-15T10:57:36.310Z,6.30
2017-11-15T11:00:04.796Z,6.40
2017-11-15T11:02:33.581Z,6.30
2017-11-15T11:05:02.087Z,6.40
2017-11-15T11:07:31.572Z,6.50
2017-11-15T11:10:01.636Z,6.50
2017-11-15T11:12:30.072Z,6.40
2017-11-15T11:15:00.392Z,6.50
2017-11-15T11:17:29.409Z,6.60
2017-11-15T11:19:58.691Z,6.50
2017-11-15T11:22:27.623Z,6.50
2017-11-15T11:24:56.214Z,6.40
2017-11-15T11:27:26.533Z,6.20
2017-11-15T11:29:55.487Z,6.30
2017-11-15T11:32:24.188Z,6.30
2017-11-15T11:34:54.184Z,6.30
2017-11-15T11:37:24.199Z,6.40
2017-11-15T11:39:55.051Z,6.40
2017-11-15T11:42:27.628Z,6.80
2017-11-15T11:44:57.435Z,6.70
2017-11-15T11:47:28.775Z,6.80
2017-11-15T11:49:58.529Z,6.80
2017-11-15T11:52:27.176Z,6.80
2017-11-15T11:54:56.108Z,6.70
2017-11-15T11:57:24.661Z,6.50
2017-11-15T11:59:53.170Z,6.70
2017-11-15T12:02:22.015Z,6.70
2017-11-15T12:04:50.496Z,6.50
2017-11-15T12:07:18.984Z,6.60
2017-11-15T12:09:47.403Z,6.60
2017-11-15T12:12:19.132Z,6.50
2017-11-15T12:14:48.123Z,6.70
2017-11-15T12:17:17.453Z,6.80
2017-11-15T12:19:51.643Z,6.80
2017-11-15T12:22:20.212Z,6.80
2017-11-15T12:24:50.454Z,6.80
2017-11-15T12:27:19.959Z,6.70
2017-11-15T12:29:48.487Z,6.80
2017-11-15T12:32:16.897Z,6.80
2017-11-15T12:34:46.573Z,6.80
2017-11-15T12:37:15.124Z,6.70
2017-11-15T12:39:43.661Z,6.80
2017-11-15T12:42:15.043Z,6.80
2017-11-15T12:44:43.672Z,6.70
2017-11-15T12:47:12.141Z,6.70
2017-11-15T12:49:43.707Z,6.60
2017-11-15T12:52:13.031Z,6.60
2017-11-15T12:54:43.261Z,6.70
2017-11-15T12:57:12.504Z,6.80
2017-11-15T12:59:44.586Z,6.80
2017-11-15T13:02:13.403Z,6.80
2017-11-15T13:04:43.521Z,6.80
2017-11-15T13:07:12.347Z,6.70
2017-11-15T13:09:43.328Z,6.90
2017-11-15T13:12:14.286Z,6.90
2017-11-15T13:14:42.738Z,6.90
2017-11-15T13:17:15.249Z,6.80
2017-11-15T13:19:45.566Z,6.70
2017-11-15T13:22:15.696Z,6.70
2017-11-15T13:24:44.208Z,6.80
2017-11-15T13:27:16.211Z,6.80
2017-11-15T13:29:48.120Z,6.80
2017-11-15T13:32:22.047Z,6.90
2017-11-15T13:34:51.663Z,6.90
2017-11-15T13:37:21.106Z,6.80
2017-11-15T13:39:51.150Z,6.90
2017-11-15T13:42:20.395Z,6.70
2017-11-15T13:44:49.969Z,6.60
2017-11-15T13:47:19.380Z,6.80
2017-11-15T13:49:48.620Z,6.80
2017-11-15T13:52:18.585Z,6.80
2017-11-15T13:54:49.461Z,6.60
2017-11-15T13:57:17.905Z,6.60
2017-11-15T13:59:46.422Z,6.60
2017-11-15T14:02:15.804Z,6.60
2017-11-15T14:04:44.781Z,6.60
2017-11-15T14:07:15.118Z,6.90
2017-11-15T14:09:44.725Z,6.90
2017-11-15T14:12:14.182Z,6.80
2017-11-15T14:14:42.618Z,6.80
2017-11-15T14:17:12.559Z,6.70
2017-11-15T14:19:42.959Z,6.80
2017-11-15T14:22:12.868Z,6.90
2017-11-15T14:24:43.013Z,6.90
2017-11-15T14:27:14.277Z,6.80
2017-11-15T14:29:45.748Z,6.80
2017-11-15T14:32:14.965Z,6.80
2017-11-15T14:34:44.220Z,6.80
2017-11-15T14:37:12.724Z,6.70
2017-11-15T14:39:43.389Z,6.70
2017-11-15T14:42:13.368Z,6.80
2017-11-15T14:44:43.127Z,6.80
2017-11-15T14:47:12.584Z,6.70
2017-11-15T14:49:41.139Z,6.70
2017-11-15T14:52:12.260Z,6.80
2017-11-15T14:54:41.716Z,6.80
2017-11-15T14:57:11.213Z,6.80
2017-11-15T14:59:39.648Z,6.80
2017-11-15T15:02:13.216Z,6.90
2017-11-15T15:04:42.042Z,6.90
2017-11-15T15:07:11.471Z,7.00
2017-11-15T15:09:39.981Z,6.90
2017-11-15T15:12:08.686Z,6.80
2017-11-15T15:14:38.923Z,6.80
2017-11-15T15:17:07.431Z,6.80
2017-11-15T15:19:35.891Z,6.80
2017-11-15T15:22:05.051Z,6.80
2017-11-15T15:24:34.682Z,6.80
2017-11-15T15:27:04.048Z,6.80
2017-11-15T15:29:32.495Z,6.80
2017-11-15T15:32:02.247Z,6.80
2017-11-15T15:34:31.579Z,6.90
2017-11-15T15:37:01.927Z,6.90
2017-11-15T15:39:30.806Z,6.80
2017-11-15T15:41:59.236Z,6.80
2017-11-15T15:44:27.676Z,6.70
2017-11-15T15:46:56.327Z,6.70
2017-11-15T15:49:25.312Z,6.70
2017-11-15T15:51:56.844Z,6.70
2017-11-15T15:54:25.433Z,6.70
2017-11-15T15:56:54.757Z,6.70
2017-11-15T15:59:23.975Z,6.60
2017-11-15T16:01:56.033Z,6.60
2017-11-15T16:04:25.289Z,6.60
2017-11-15T16:06:54.602Z,6.60
2017-11-15T16:09:23.356Z,6.60
2017-11-15T16:11:51.786Z,6.60
2017-11-15T16:14:21.697Z,6.60
2017-11-15T16:16:50.940Z,6.60
2017-11-15T16:19:20.269Z,6.60
2017-11-15T16:21:48.851Z,6.60
2017-11-15T16:24:17.403Z,6.60
2017-11-15T16:26:47.124Z,6.60
2017-11-15T16:29:16.449Z,6.60
2017-11-15T16:31:47.763Z,6.60
2017-11-15T16:34:17.426Z,6.60
2017-11-15T16:36:46.844Z,6.60
2017-11-15T16:39:15.351Z,6.60
2017-11-15T16:41:43.817Z,6.60
2017-11-15T16:44:12.534Z,6.60
2017-11-15T16:46:40.978Z,6.60
2017-11-15T16:49:12.294Z,6.60
2017-11-15T16:51:41.945Z,6.60
2017-11-15T16:54:10.560Z,6.60
2017-11-15T16:56:39.649Z,6.60
2017-11-15T16:59:08.230Z,6.60
2017-11-15T17:01:36.694Z,6.60
2017-11-15T17:04:07.601Z,6.50
2017-11-15T17:06:37.002Z,6.50
2017-11-15T17:09:06.264Z,6.50
2017-11-15T17:11:34.827Z,6.50
2017-11-15T17:14:03.680Z,6.50
2017-11-15T17:16:32.852Z,6.60
2017-11-15T17:19:02.128Z,6.50
2017-11-15T17:21:30.686Z,6.50
2017-11-15T17:23:59.086Z,6.50
2017-11-15T17:26:27.591Z,6.50
2017-11-15T17:28:56.167Z,6.50
2017-11-15T17:31:24.615Z,6.50
2017-11-15T17:33:53.045Z,6.50
2017-11-15T17:36:21.545Z,6.50
2017-11-15T17:38:50.845Z,6.50
2017-11-15T17:41:20.927Z,6.40
2017-11-15T17:43:49.472Z,6.40
2017-11-15T17:46:19.111Z,6.40
2017-11-15T17:48:48.874Z,6.40
2017-11-15T17:51:17.828Z,6.40
2017-11-15T17:53:46.451Z,6.40
2017-11-15T17:56:14.923Z,6.50
2017-11-15T17:58:44.157Z,6.40
2017-11-15T18:01:13.411Z,6.40
2017-11-15T18:03:43.559Z,6.40
2017-11-15T18:06:12.052Z,6.40
2017-11-15T18:08:41.288Z,6.40
2017-11-15T18:11:10.508Z,6.40
2017-11-15T18:13:40.757Z,6.40
2017-11-15T18:16:09.173Z,6.40
2017-11-15T18:18:37.605Z,6.40
2017-11-15T18:21:06.849Z,6.30
2017-11-15T18:23:35.283Z,6.40
2017-11-15T18:26:03.803Z,6.40
2017-11-15T18:28:32.510Z,6.40
2017-11-15T18:31:00.940Z,6.40
2017-11-15T18:33:29.472Z,6.40
2017-11-15T18:35:58.058Z,6.40
2017-11-15T18:38:26.472Z,6.40
2017-11-15T18:40:56.418Z,6.30
2017-11-15T18:43:25.018Z,6.30
2017-11-15T18:45:53.517Z,6.30
2017-11-15T18:48:22.721Z,6.30
2017-11-15T18:50:51.343Z,6.30
2017-11-15T18:53:20.681Z,6.40
2017-11-15T18:55:49.290Z,6.30
2017-11-15T18:58:17.774Z,6.40
2017-11-15T19:00:46.191Z,6.50
2017-11-15T19:03:14.574Z,6.40
2017-11-15T19:05:43.240Z,6.40
2017-11-15T19:08:12.406Z,6.40
2017-11-15T19:10:40.805Z,6.40
2017-11-15T19:13:10.065Z,6.50
2017-11-15T19:15:38.467Z,6.50
2017-11-15T19:18:07.638Z,6.50
2017-11-15T19:20:36.895Z,6.40
2017-11-15T19:23:05.326Z,6.40
2017-11-15T19:25:33.726Z,6.40
2017-11-15T19:28:02.166Z,6.40
2017-11-15T19:30:30.629Z,6.40
2017-11-15T19:32:59.069Z,6.40
2017-11-15T19:35:27.505Z,6.40
2017-11-15T19:37:55.906Z,6.50
2017-11-15T19:40:24.356Z,6.50
2017-11-15T19:42:53.142Z,6.50
2017-11-15T19:45:21.576Z,6.50
2017-11-15T19:47:50.018Z,6.50
2017-11-15T19:50:18.783Z,6.50
2017-11-15T19:52:47.244Z,6.50
2017-11-15T19:55:16.476Z,6.40
2017-11-15T19:57:45.045Z,6.40
2017-11-15T20:00:13.463Z,6.50
2017-11-15T20:02:41.859Z,6.50
2017-11-15T20:05:10.441Z,6.50
2017-11-15T20:07:39.193Z,6.50
2017-11-15T20:10:07.842Z,6.40
2017-11-15T20:12:37.159Z,6.50
2017-11-15T20:15:05.600Z,6.50
2017-11-15T20:17:33.990Z,6.40
2017-11-15T20:20:02.468Z,6.40
2017-11-15T20:22:31.623Z,6.40
2017-11-15T20:25:00.037Z,6.40
2017-11-15T20:27:28.795Z,6.40
2017-11-15T20:29:57.213Z,6.50
2017-11-15T20:32:25.879Z,6.40
2017-11-15T20:34:54.359Z,6.40
2017-11-15T20:37:24.314Z,6.40
2017-11-15T20:39:53.475Z,6.40
2017-11-15T20:42:22.002Z,6.30
2017-11-15T20:44:50.540Z,6.40
2017-11-15T20:47:18.974Z,6.30
2017-11-15T20:49:47.768Z,6.30
2017-11-15T20:52:16.151Z,6.40
2017-11-15T20:54:44.595Z,6.40
2017-11-15T20:57:13.862Z,6.40
2017-11-15T20:59:42.642Z,6.40
2017-11-15T21:02:11.045Z,6.40
2017-11-15T21:04:40.427Z,6.40
2017-11-15T21:07:08.823Z,6.40
2017-11-15T21:09:37.263Z,6.50
2017-11-15T21:12:05.709Z,6.40
2017-11-15T21:14:34.906Z,6.50
2017-11-15T21:17:03.347Z,6.50
2017-11-15T21:19:31.886Z,6.50
2017-11-15T21:22:00.483Z,6.40
2017-11-15T21:24:28.901Z,6.50
2017-11-15T21:26:57.732Z,6.50
2017-11-15T21:29:26.875Z,6.50
2017-11-15T21:31:55.320Z,6.50
2017-11-15T21:34:23.800Z,6.40
2017-11-15T21:36:52.199Z,6.50
2017-11-15T21:39:20.624Z,6.50
2017-11-15T21:41:49.853Z,6.40
2017-11-15T21:44:18.251Z,6.40
2017-11-15T21:46:46.884Z,6.40
2017-11-15T21:49:15.626Z,6.40
2017-11-15T21:51:44.034Z,6.40
2017-11-15T21:54:12.492Z,6.40
2017-11-15T21:56:41.277Z,6.40
2017-11-15T21:59:09.697Z,6.40
2017-11-15T22:01:38.275Z,6.50
2017-11-15T22:04:06.857Z,6.50
2017-11-15T22:06:35.283Z,6.40
2017-11-15T22:09:04.549Z,6.40
2017-11-15T22:11:33.779Z,6.40
2017-11-15T22:14:02.233Z,6.30
2017-11-15T22:16:31.494Z,6.30
2017-11-15T22:19:00.066Z,6.30
2017-11-15T22:21:28.461Z,6.30
2017-11-15T22:23:57.901Z,6.40
2017-11-15T22:26:27.309Z,6.50
2017-11-15T22:28:56.486Z,6.50
2017-11-15T22:31:24.880Z,6.50
2017-11-15T22:33:53.363Z,6.40
2017-11-15T22:36:21.781Z,6.40
2017-11-15T22:38:50.223Z,6.40
2017-11-15T22:41:19.106Z,6.40
2017-11-15T22:43:48.267Z,6.40
2017-11-15T22:46:16.672Z,6.40
2017-11-15T22:48:46.287Z,6.50
2017-11-15T22:51:15.517Z,6.50
2017-11-15T22:53:43.950Z,6.50
2017-11-15T22:56:12.419Z,6.40
2017-11-15T22:58:41.756Z,6.50
2017-11-15T23:01:10.942Z,6.50
2017-11-15T23:03:40.357Z,6.50
2017-11-15T23:06:09.539Z,6.50
2017-11-15T23:08:38.774Z,6.50
2017-11-15T23:11:07.233Z,6.40
2017-11-15T23:13:35.885Z,6.40
2017-11-15T23:16:04.301Z,6.40
2017-11-15T23:18:35.129Z,6.30
2017-11-15T23:21:04.298Z,6.30
2017-11-15T23:23:32.705Z,6.30
2017-11-15T23:26:02.213Z,6.30
2017-11-15T23:28:31.390Z,6.30
2017-11-15T23:30:59.791Z,6.30
2017-11-15T23:33:28.996Z,6.30
2017-11-15T23:35:58.161Z,6.30
2017-11-15T23:38:26.636Z,6.30
2017-11-15T23:40:55.161Z,6.30
2017-11-15T23:43:23.664Z,6.20
2017-11-15T23:45:52.064Z,6.30
2017-11-15T23:48:20.535Z,6.30
2017-11-15T23:50:48.965Z,6.30
2017-11-15T23:53:18.189Z,6.30
2017-11-15T23:55:46.876Z,6.30
2017-11-15T23:58:15.365Z,6.30
